SBLO

Details ICAO SBLO (LDB)
Name Governador Jose Richa Airport
Region Brazil
Timezone America/Sao_Paulo (UTC-3.0)
Plans Departing 97
Arriving 89
Stats Elevation 1,868 ft / 569 m (AMSL)
Location -23.333600° -51.130100°
Runways 1
Magnetic Variation 19.201° W
Sunrise 2018-10-17 08:51:10 UTC / 2018-10-17 05:51:10 Local
Sunset 2018-10-17 21:30:51 UTC / 2018-10-17 18:30:51 Local
Advertisement - Login to hide

Runways

ID Width Length Bearing (true/mag) Surface Threshold Overrun Markings Lighting
13 148 ft / 45 m 6,888 ft / 2,100 m 110.10° / 129.31° ASPHALT 1,083 ft / 330 m 0 ft / 0 m APP CENTERLINE EDGE THRESHOLD REIL-OMNI
31 148 ft / 45 m 6,888 ft / 2,100 m 290.10° / 309.30° ASPHALT 0 ft / 0 m 0 ft / 0 m APP CENTERLINE EDGE THRESHOLD REIL-OMNI

Map

Weather


0- 5 10 15 20 25 30 35+ Temperature / °C

Clouds and Precipitation
Forecast for 2018-10-17 18:00 UTC. Updated 3 hours ago

Ground ~20,000 ft ~40,000 ft Winds

METAR

SBLO 171825Z 03005KT 8000 -TSRA BKN030 FEW040CB BKN090 22/21 Q1 011 RERA

TAF

TAF SBLO 171500Z 1718/1806 06007KT 9999 SCT045 TX32/1718Z TN23/1805Z PROB40 TEMPO 1718/1720 VCSH SCT030 FEW040TCU BECMG 1722/1724 01006KT FEW030 RMK PCO

Frequencies

Recorded 127.67 MHz Londrina ATIS
Approach 129.70 MHz Londrina Approach
Tower 118.40 MHz Londrina Tower
Warning: Do not use this data for real-world aviation or navigation. No guarantee of current accuracy is given.